createdAt,value
2022-10-23T00:00:43.317Z,46.09
2022-10-23T00:01:43.383Z,46.61
2022-10-23T00:02:43.880Z,45.99
2022-10-23T00:03:43.572Z,45.64
2022-10-23T00:04:43.712Z,45.69
2022-10-23T00:05:43.880Z,46.04
2022-10-23T00:06:43.971Z,45.64
2022-10-23T00:07:44.099Z,45.74
2022-10-23T00:08:44.234Z,45.64
2022-10-23T00:09:44.419Z,45.69
2022-10-23T00:10:44.659Z,46.35
2022-10-23T00:11:44.646Z,46.61
2022-10-23T00:12:45.169Z,46.04
2022-10-23T00:13:44.929Z,46.45
2022-10-23T00:14:45.155Z,46.04
2022-10-23T00:15:45.205Z,45.94
2022-10-23T00:16:45.303Z,45.44
2022-10-23T00:17:45.630Z,44.90
2022-10-23T00:18:45.559Z,44.43
2022-10-23T00:19:45.741Z,44.33
2022-10-23T00:20:45.842Z,44.10
2022-10-23T00:21:45.949Z,44.38
2022-10-23T00:22:46.069Z,44.19
2022-10-23T00:23:46.207Z,44.52
2022-10-23T00:24:46.530Z,44.76
2022-10-23T00:25:46.506Z,44.57
2022-10-23T00:26:46.612Z,44.66
2022-10-23T00:27:46.736Z,44.10
2022-10-23T00:28:46.858Z,43.91
2022-10-23T00:29:47.007Z,43.68
2022-10-23T00:30:47.126Z,43.50
2022-10-23T00:31:47.207Z,43.14
2022-10-23T00:32:47.335Z,43.14
2022-10-23T00:33:47.475Z,42.83
2022-10-23T00:34:47.636Z,43.19
2022-10-23T00:35:47.736Z,43.10
2022-10-23T00:36:47.855Z,43.14
2022-10-23T00:37:47.995Z,42.83
2022-10-23T00:38:48.124Z,43.10
2022-10-23T00:39:48.285Z,43.28
2022-10-23T00:41:48.501Z,43.50
2022-10-23T00:42:48.634Z,43.54
2022-10-23T00:43:48.783Z,43.54
2022-10-23T00:44:49.054Z,43.64
2022-10-23T00:45:49.046Z,43.59
2022-10-23T00:46:49.183Z,43.73
2022-10-23T00:47:49.324Z,43.91
2022-10-23T00:48:49.453Z,44.05
2022-10-23T00:49:49.752Z,44.10
2022-10-23T00:50:49.740Z,44.24
2022-10-23T00:51:49.874Z,44.28
2022-10-23T00:52:50.023Z,44.52
2022-10-23T00:54:00.948Z,44.76
2022-10-23T00:54:51.328Z,44.85
2022-10-23T00:55:50.394Z,44.90
2022-10-23T00:56:50.541Z,45.10
2022-10-23T00:57:50.690Z,45.29
2022-10-23T00:58:50.772Z,45.19
2022-10-23T00:59:50.971Z,45.29
2022-10-23T01:00:51.058Z,45.59
2022-10-23T01:01:51.274Z,45.74
2022-10-23T01:02:51.320Z,45.74
2022-10-23T01:03:51.448Z,45.84
2022-10-23T01:04:51.617Z,45.99
2022-10-23T01:05:51.708Z,46.04
2022-10-23T01:06:51.828Z,46.14
2022-10-23T01:07:51.957Z,46.14
2022-10-23T01:08:52.089Z,46.19
2022-10-23T01:09:52.238Z,46.35
2022-10-23T01:10:52.319Z,46.35
2022-10-23T01:11:52.467Z,46.40
2022-10-23T01:12:52.598Z,46.19
2022-10-23T01:13:52.816Z,46.25
2022-10-23T01:14:52.968Z,46.19
2022-10-23T01:15:53.035Z,46.35
2022-10-23T01:16:53.130Z,46.25
2022-10-23T01:17:53.275Z,46.30
2022-10-23T01:18:53.430Z,46.61
2022-10-23T01:19:53.667Z,46.66
2022-10-23T01:20:53.696Z,46.45
2022-10-23T01:21:53.806Z,46.61
2022-10-23T01:22:53.944Z,46.56
2022-10-23T01:23:54.094Z,46.61
2022-10-23T01:24:54.214Z,46.71
2022-10-23T01:25:54.304Z,46.82
2022-10-23T01:26:54.442Z,47.03
2022-10-23T01:27:54.584Z,46.97
2022-10-23T01:28:54.733Z,46.76
2022-10-23T01:29:54.883Z,47.00
2022-10-23T01:30:55.003Z,46.97
2022-10-23T01:31:55.102Z,47.00
2022-10-23T01:32:55.243Z,47.03
2022-10-23T01:33:55.363Z,47.03
2022-10-23T01:34:55.521Z,46.94
2022-10-23T01:35:55.622Z,47.03
2022-10-23T01:36:55.771Z,47.03
2022-10-23T01:37:55.844Z,47.08
2022-10-23T01:38:56.003Z,46.97
2022-10-23T01:39:56.171Z,46.87
2022-10-23T01:40:56.201Z,46.92
2022-10-23T01:41:56.342Z,46.92
2022-10-23T01:42:56.511Z,46.92
2022-10-23T01:43:56.610Z,46.82
2022-10-23T01:44:56.781Z,46.82
2022-10-23T01:45:56.891Z,46.71
2022-10-23T01:46:56.987Z,46.82
2022-10-23T01:47:57.100Z,46.61
2022-10-23T01:48:57.249Z,46.87
2022-10-23T01:49:57.370Z,46.76
2022-10-23T01:50:57.479Z,46.87
2022-10-23T01:51:57.588Z,46.87
2022-10-23T01:52:57.699Z,46.92
2022-10-23T01:53:57.839Z,47.00
2022-10-23T01:54:58.054Z,46.82
2022-10-23T01:55:58.178Z,46.92
2022-10-23T01:56:58.216Z,46.92
2022-10-23T01:57:58.337Z,47.13
2022-10-23T01:58:58.478Z,47.03
2022-10-23T01:59:58.658Z,46.97
2022-10-23T02:00:58.829Z,46.97
2022-10-23T02:01:58.924Z,46.82
2022-10-23T02:02:59.016Z,47.03
2022-10-23T02:04:59.317Z,46.82
2022-10-23T02:05:59.406Z,46.92
2022-10-23T02:06:59.555Z,46.76
2022-10-23T02:07:59.713Z,46.61
2022-10-23T02:08:59.804Z,46.61
2022-10-23T02:09:59.945Z,46.87
2022-10-23T02:11:00.154Z,46.92
2022-10-23T02:12:00.215Z,46.71
2022-10-23T02:13:00.321Z,46.82
2022-10-23T02:14:00.446Z,46.76
2022-10-23T02:15:00.623Z,46.45
2022-10-23T02:16:00.704Z,46.61
2022-10-23T02:17:00.852Z,46.82
2022-10-23T02:18:00.994Z,46.87
2022-10-23T02:19:01.139Z,46.50
2022-10-23T02:20:01.313Z,46.66
2022-10-23T02:21:01.433Z,46.45
2022-10-23T02:22:01.534Z,46.45
2022-10-23T02:23:01.672Z,46.40
2022-10-23T02:24:01.800Z,46.40
2022-10-23T02:25:01.972Z,46.40
2022-10-23T02:26:02.071Z,46.45
2022-10-23T02:27:02.151Z,46.35
2022-10-23T02:28:02.293Z,46.30
2022-10-23T02:29:02.441Z,46.30
2022-10-23T02:30:02.592Z,46.56
2022-10-23T02:31:02.790Z,46.35
2022-10-23T02:32:02.811Z,46.45
2022-10-23T02:33:02.960Z,46.50
2022-10-23T02:34:03.080Z,46.40
2022-10-23T02:35:03.230Z,46.35
2022-10-23T02:36:03.360Z,46.35
2022-10-23T02:37:03.444Z,46.50
2022-10-23T02:38:03.570Z,46.30
2022-10-23T02:39:03.708Z,46.35
2022-10-23T02:40:03.898Z,46.56
2022-10-23T02:41:03.988Z,46.40
2022-10-23T02:42:04.116Z,46.30
2022-10-23T02:43:04.237Z,46.35
2022-10-23T02:44:04.378Z,46.35
2022-10-23T02:45:04.546Z,46.56
2022-10-23T02:46:04.650Z,46.61
2022-10-23T02:47:04.737Z,46.61
2022-10-23T02:48:04.879Z,46.71
2022-10-23T02:49:05.027Z,46.82
2022-10-23T02:50:05.214Z,46.76
2022-10-23T02:51:05.405Z,46.76
2022-10-23T02:52:05.436Z,47.00
2022-10-23T02:53:05.562Z,46.94
2022-10-23T02:54:05.714Z,47.10
2022-10-23T02:55:05.893Z,47.26
2022-10-23T02:56:05.995Z,47.48
2022-10-23T02:57:06.096Z,47.81
2022-10-23T02:58:06.238Z,48.17
2022-10-23T02:59:06.358Z,48.25
2022-10-23T03:00:06.528Z,48.39
2022-10-23T03:01:06.670Z,48.64
2022-10-23T03:02:06.914Z,48.96
2022-10-23T03:03:06.905Z,49.30
2022-10-23T03:04:07.023Z,49.24
2022-10-23T03:05:07.224Z,49.36
2022-10-23T03:06:07.272Z,49.51
2022-10-23T03:07:07.403Z,49.42
2022-10-23T03:08:07.553Z,49.33
2022-10-23T03:09:07.687Z,49.33
2022-10-23T03:10:07.823Z,49.24
2022-10-23T03:11:08.042Z,49.19
2022-10-23T03:12:08.081Z,49.36
2022-10-23T03:13:08.232Z,49.22
2022-10-23T03:14:08.371Z,49.22
2022-10-23T03:15:08.529Z,49.01
2022-10-23T03:16:08.620Z,49.01
2022-10-23T03:17:08.761Z,49.24
2022-10-23T03:18:08.903Z,49.27
2022-10-23T03:19:09.126Z,49.36
2022-10-23T03:20:09.339Z,49.36
2022-10-23T03:21:09.283Z,49.51
2022-10-23T03:22:09.397Z,49.39
2022-10-23T03:23:09.539Z,49.48
2022-10-23T03:24:09.669Z,49.45
2022-10-23T03:25:09.941Z,49.51
2022-10-23T03:26:09.929Z,49.54
2022-10-23T03:27:10.077Z,49.69
2022-10-23T03:28:10.218Z,49.33
2022-10-23T03:29:10.348Z,49.24
2022-10-23T03:30:10.517Z,49.27
2022-10-23T03:31:10.668Z,49.19
2022-10-23T03:32:10.750Z,49.30
2022-10-23T03:33:10.887Z,49.24
2022-10-23T03:34:11.043Z,49.19
2022-10-23T03:35:11.217Z,49.22
2022-10-23T03:36:11.247Z,49.01
2022-10-23T03:37:11.454Z,48.78
2022-10-23T03:38:11.517Z,48.96
2022-10-23T03:39:11.644Z,48.99
2022-10-23T03:40:11.947Z,48.87
2022-10-23T03:41:11.922Z,49.01
2022-10-23T03:42:12.066Z,48.87
2022-10-23T03:43:12.214Z,48.84
2022-10-23T03:44:12.345Z,48.81
2022-10-23T03:45:12.564Z,48.96
2022-10-23T03:46:12.651Z,48.73
2022-10-23T03:47:12.718Z,48.84
2022-10-23T03:48:12.854Z,48.73
2022-10-23T03:49:13.004Z,48.84
2022-10-23T03:50:13.273Z,49.01
2022-10-23T03:51:13.261Z,49.01
2022-10-23T03:52:13.433Z,49.42
2022-10-23T03:53:13.511Z,49.39
2022-10-23T03:54:13.633Z,49.57
2022-10-23T03:55:13.813Z,49.95
2022-10-23T03:56:13.922Z,49.92
2022-10-23T03:57:14.042Z,50.16
2022-10-23T03:58:14.174Z,50.13
2022-10-23T03:59:14.293Z,50.31
2022-10-23T04:00:14.511Z,50.28
2022-10-23T04:01:14.592Z,50.68
2022-10-23T04:02:14.688Z,50.80
2022-10-23T04:03:14.819Z,51.05
2022-10-23T04:04:14.942Z,51.37
2022-10-23T04:05:15.183Z,51.56
2022-10-23T04:06:15.231Z,51.40
2022-10-23T04:07:15.320Z,51.85
2022-10-23T04:08:19.179Z,51.88
2022-10-23T04:09:15.623Z,51.97
2022-10-23T04:10:15.811Z,51.72
2022-10-23T04:11:15.897Z,51.81
2022-10-23T04:12:15.992Z,51.75
2022-10-23T04:13:16.186Z,51.91
2022-10-23T04:14:16.259Z,51.65
2022-10-23T04:15:16.417Z,51.37
2022-10-23T04:16:16.500Z,51.05
2022-10-23T04:17:16.700Z,50.96
2022-10-23T04:18:16.797Z,50.80
2022-10-23T04:19:16.878Z,50.50
2022-10-23T04:20:17.063Z,50.53
2022-10-23T04:21:17.157Z,50.34
2022-10-23T04:22:17.279Z,50.19
2022-10-23T04:23:17.417Z,49.98
2022-10-23T04:24:17.625Z,50.13
2022-10-23T04:25:17.711Z,49.95
2022-10-23T04:26:17.908Z,49.54
2022-10-23T04:27:17.996Z,49.42
2022-10-23T04:28:18.117Z,49.16
2022-10-23T04:29:18.307Z,48.93
2022-10-23T04:30:18.395Z,48.44
2022-10-23T04:31:18.698Z,48.03
2022-10-23T04:32:18.654Z,47.26
2022-10-23T04:33:18.798Z,46.87
2022-10-23T04:34:19.012Z,45.84
2022-10-23T04:35:19.026Z,45.69
2022-10-23T04:36:19.177Z,45.19
2022-10-23T04:37:19.263Z,44.90
2022-10-23T04:38:19.394Z,44.47
2022-10-23T04:39:19.543Z,44.33
2022-10-23T04:40:19.703Z,44.00
2022-10-23T04:41:19.816Z,43.28
2022-10-23T04:42:19.992Z,42.70
2022-10-23T04:43:20.075Z,43.32
2022-10-23T04:44:20.273Z,43.37
2022-10-23T04:45:20.352Z,43.37
2022-10-23T04:46:20.490Z,43.37
2022-10-23T04:47:20.635Z,43.28
2022-10-23T04:48:23.380Z,43.23
2022-10-23T04:49:20.957Z,43.05
2022-10-23T04:50:21.031Z,42.57
2022-10-23T04:51:21.182Z,42.70
2022-10-23T04:52:21.323Z,42.66
2022-10-23T04:53:21.480Z,42.40
2022-10-23T04:54:21.631Z,42.27
2022-10-23T04:55:21.711Z,42.27
2022-10-23T04:56:21.889Z,42.18
2022-10-23T04:57:21.980Z,41.97
2022-10-23T04:58:22.108Z,41.84
2022-10-23T04:59:22.278Z,41.84
2022-10-23T05:00:22.359Z,41.93
2022-10-23T05:01:22.574Z,42.01
2022-10-23T05:02:22.639Z,42.01
2022-10-23T05:03:22.770Z,41.89
2022-10-23T05:04:22.956Z,41.89
2022-10-23T05:05:23.049Z,41.93
2022-10-23T05:06:23.167Z,41.84
2022-10-23T05:07:23.301Z,41.76
2022-10-23T05:08:23.430Z,42.14
2022-10-23T05:09:23.594Z,41.97
2022-10-23T05:10:23.697Z,41.97
2022-10-23T05:11:23.909Z,42.01
2022-10-23T05:12:23.945Z,41.93
2022-10-23T05:13:25.073Z,42.31
2022-10-23T05:14:24.197Z,42.05
2022-10-23T05:15:24.343Z,42.22
2022-10-23T05:16:24.496Z,42.22
2022-10-23T05:17:24.595Z,42.05
2022-10-23T05:18:24.783Z,42.22
2022-10-23T05:19:24.859Z,42.14
2022-10-23T05:20:24.994Z,42.22
2022-10-23T05:21:25.165Z,42.27
2022-10-23T05:22:25.267Z,42.10
2022-10-23T05:23:25.425Z,42.14
2022-10-23T05:24:25.514Z,41.76
2022-10-23T05:25:25.655Z,42.05
2022-10-23T05:26:25.823Z,42.01
2022-10-23T05:27:25.907Z,41.89
2022-10-23T05:28:26.074Z,41.93
2022-10-23T05:29:26.283Z,42.05
2022-10-23T05:30:26.311Z,42.14
2022-10-23T05:31:26.513Z,42.10
2022-10-23T05:32:26.539Z,42.18
2022-10-23T05:33:26.733Z,41.89
2022-10-23T05:34:26.790Z,41.97
2022-10-23T05:35:26.972Z,42.01
2022-10-23T05:36:27.074Z,42.22
2022-10-23T05:37:27.160Z,42.18
2022-10-23T05:38:27.450Z,42.14
2022-10-23T05:39:27.436Z,42.01
2022-10-23T05:40:27.593Z,42.18
2022-10-23T05:41:27.740Z,42.14
2022-10-23T05:42:27.841Z,42.05
2022-10-23T05:43:27.991Z,42.10
2022-10-23T05:44:28.086Z,42.14
2022-10-23T05:45:28.216Z,42.18
2022-10-23T05:46:28.367Z,42.18
2022-10-23T05:47:28.449Z,42.31
2022-10-23T05:48:34.705Z,42.31
2022-10-23T05:49:29.781Z,42.27
2022-10-23T05:50:28.858Z,42.05
2022-10-23T05:51:29.027Z,42.27
2022-10-23T05:52:29.128Z,42.35
2022-10-23T05:53:29.297Z,42.22
2022-10-23T05:54:29.408Z,42.22
2022-10-23T05:55:29.497Z,42.53
2022-10-23T05:56:29.651Z,42.31
2022-10-23T05:57:29.761Z,42.27
2022-10-23T05:58:29.934Z,42.18
2022-10-23T05:59:30.018Z,42.31
2022-10-23T06:00:30.238Z,42.22
2022-10-23T06:01:30.490Z,42.35
2022-10-23T06:02:30.462Z,42.31
2022-10-23T06:03:30.584Z,42.22
2022-10-23T06:04:30.706Z,42.35
2022-10-23T06:05:30.853Z,42.44
2022-10-23T06:06:30.956Z,42.53
2022-10-23T06:07:33.548Z,42.57
2022-10-23T06:08:31.242Z,42.44
2022-10-23T06:09:31.358Z,42.57
2022-10-23T06:10:31.487Z,42.66
2022-10-23T06:11:33.625Z,42.57
2022-10-23T06:12:31.746Z,42.66
2022-10-23T06:13:32.039Z,42.96
2022-10-23T06:14:32.017Z,43.05
2022-10-23T06:15:32.160Z,42.83
2022-10-23T06:16:32.337Z,42.79
2022-10-23T06:17:32.433Z,43.14
2022-10-23T06:18:32.604Z,43.01
2022-10-23T06:19:32.705Z,42.96
2022-10-23T06:20:32.842Z,43.05
2022-10-23T06:21:32.971Z,42.96
2022-10-23T06:22:33.111Z,43.14
2022-10-23T06:23:33.278Z,43.19
2022-10-23T06:24:33.369Z,43.14
2022-10-23T06:25:33.494Z,43.23
2022-10-23T06:26:33.632Z,43.37
2022-10-23T06:27:33.781Z,43.37
2022-10-23T06:28:33.969Z,43.41
2022-10-23T06:29:34.040Z,43.46
2022-10-23T06:30:34.216Z,43.37
2022-10-23T06:31:34.370Z,43.68
2022-10-23T06:32:34.451Z,43.54
2022-10-23T06:33:34.606Z,43.73
2022-10-23T06:34:34.739Z,43.82
2022-10-23T06:35:34.841Z,44.10
2022-10-23T06:36:34.978Z,44.14
2022-10-23T06:37:35.120Z,44.28
2022-10-23T06:38:35.302Z,44.47
2022-10-23T06:39:35.399Z,45.10
2022-10-23T06:40:35.559Z,45.05
2022-10-23T06:41:35.649Z,45.10
2022-10-23T06:42:35.778Z,45.34
2022-10-23T06:43:35.928Z,45.44
2022-10-23T06:44:36.028Z,45.84
2022-10-23T06:45:36.168Z,45.79
2022-10-23T06:46:36.315Z,46.09
2022-10-23T06:47:36.467Z,46.04
2022-10-23T06:48:36.606Z,46.56
2022-10-23T06:49:36.704Z,46.50
2022-10-23T06:50:36.858Z,46.71
2022-10-23T06:51:37.007Z,46.71
2022-10-23T06:52:47.994Z,46.87
2022-10-23T06:53:38.279Z,46.92
2022-10-23T06:54:37.366Z,47.08
2022-10-23T06:56:37.645Z,47.56
2022-10-23T06:57:37.904Z,47.45
2022-10-23T06:58:37.893Z,47.62
2022-10-23T06:59:38.024Z,47.67
2022-10-23T07:00:38.227Z,47.67
2022-10-23T07:01:38.437Z,47.89
2022-10-23T07:02:38.604Z,47.89
2022-10-23T07:03:38.552Z,48.17
2022-10-23T07:04:38.681Z,48.42
2022-10-23T07:05:38.822Z,48.56
2022-10-23T07:06:38.971Z,49.13
2022-10-23T07:07:39.284Z,49.33
2022-10-23T07:08:39.292Z,49.42
2022-10-23T07:09:39.413Z,49.45
2022-10-23T07:10:39.522Z,49.54
2022-10-23T07:11:39.624Z,49.63
2022-10-23T07:12:40.835Z,49.83
2022-10-23T07:13:39.901Z,49.92
2022-10-23T07:14:40.141Z,50.07
2022-10-23T07:15:40.162Z,50.25
2022-10-23T07:16:40.291Z,50.31
2022-10-23T07:17:40.442Z,50.44
2022-10-23T07:18:40.611Z,50.83
2022-10-23T07:19:40.710Z,51.30
2022-10-23T07:20:40.830Z,51.18
2022-10-23T07:21:40.981Z,51.72
2022-10-23T07:22:41.600Z,51.72
2022-10-23T07:23:41.217Z,51.97
2022-10-23T07:24:41.350Z,51.75
2022-10-23T07:25:41.476Z,51.85
2022-10-23T07:26:41.671Z,52.20
2022-10-23T07:27:42.316Z,52.17
2022-10-23T07:28:41.868Z,52.20
2022-10-23T07:29:42.017Z,52.56
2022-10-23T07:30:42.130Z,52.56
2022-10-23T07:31:42.288Z,52.10
2022-10-23T07:32:42.467Z,51.94
2022-10-23T07:33:42.507Z,52.40
2022-10-23T07:34:42.647Z,52.43
2022-10-23T07:35:42.795Z,52.70
2022-10-23T07:36:42.956Z,53.24
2022-10-23T07:37:43.390Z,53.61
2022-10-23T07:38:43.166Z,53.89
2022-10-23T07:39:43.296Z,54.13
2022-10-23T07:40:43.435Z,53.58
2022-10-23T07:41:43.586Z,54.06
2022-10-23T07:42:43.835Z,55.50
2022-10-23T07:43:43.803Z,56.79
2022-10-23T07:44:43.973Z,56.10
2022-10-23T07:45:44.095Z,56.90
2022-10-23T07:46:44.174Z,57.77
2022-10-23T07:47:44.690Z,58.62
2022-10-23T07:48:44.454Z,59.29
2022-10-23T07:49:44.574Z,60.62
2022-10-23T07:50:44.716Z,61.74
2022-10-23T07:51:49.029Z,62.44
2022-10-23T07:52:46.381Z,63.63
2022-10-23T07:53:45.104Z,65.17
2022-10-23T07:54:45.281Z,66.15
2022-10-23T07:55:45.375Z,67.60
2022-10-23T07:56:45.523Z,68.37
2022-10-23T07:57:45.749Z,68.88
2022-10-23T07:58:45.772Z,70.04
2022-10-23T07:59:45.901Z,70.63
2022-10-23T08:00:46.032Z,71.29
2022-10-23T08:01:46.309Z,72.16
2022-10-23T08:02:46.331Z,72.53
2022-10-23T08:03:46.421Z,72.60
2022-10-23T08:04:46.572Z,72.79
2022-10-23T08:05:46.720Z,73.88
2022-10-23T08:06:46.840Z,75.28
2022-10-23T08:07:46.951Z,77.02
2022-10-23T08:08:47.099Z,79.67
2022-10-23T08:09:47.228Z,79.67
2022-10-23T08:10:47.351Z,79.90
2022-10-23T08:11:47.508Z,79.59
2022-10-23T08:12:47.689Z,79.97
2022-10-23T08:13:47.739Z,81.14
2022-10-23T08:14:47.908Z,82.42
2022-10-23T08:15:48.003Z,85.90
2022-10-23T08:16:48.143Z,88.26
2022-10-23T08:17:48.289Z,89.88
2022-10-23T08:18:48.379Z,89.40
2022-10-23T08:19:48.500Z,89.98
2022-10-23T08:20:48.653Z,92.06
2022-10-23T08:21:48.798Z,92.78
2022-10-23T08:22:48.950Z,94.33
2022-10-23T08:23:49.018Z,97.70
2022-10-23T08:24:49.177Z,102.25
2022-10-23T08:25:49.285Z,105.62
2022-10-23T08:26:49.378Z,106.76
2022-10-23T08:27:52.141Z,108.57
2022-10-23T08:28:49.681Z,109.00
2022-10-23T08:29:49.769Z,111.92
2022-10-23T08:30:49.858Z,116.86
2022-10-23T08:31:50.127Z,116.29
2022-10-23T08:32:50.139Z,120.84
2022-10-23T08:34:50.426Z,127.78
2022-10-23T08:35:50.496Z,129.36
2022-10-23T08:36:50.744Z,138.03
2022-10-23T08:37:50.734Z,143.73
2022-10-23T08:38:50.826Z,148.20
2022-10-23T08:39:53.246Z,148.86
2022-10-23T08:40:51.098Z,152.26
2022-10-23T08:41:51.286Z,155.96
2022-10-23T08:42:51.391Z,160.61
2022-10-23T08:43:51.485Z,166.38
2022-10-23T08:44:51.595Z,169.42
2022-10-23T08:45:51.736Z,171.51
2022-10-23T08:46:52.004Z,173.83
2022-10-23T08:47:52.005Z,181.58
2022-10-23T08:48:52.115Z,189.70
2022-10-23T08:49:52.218Z,199.14
2022-10-23T08:50:52.336Z,205.76
2022-10-23T08:51:52.608Z,212.70
2022-10-23T08:52:52.547Z,210.92
2022-10-23T08:53:52.703Z,212.97
2022-10-23T08:54:52.837Z,213.66
2022-10-23T08:55:52.947Z,218.65
2022-10-23T08:56:53.113Z,222.50
2022-10-23T08:57:53.154Z,226.34
2022-10-23T08:59:53.403Z,236.28
2022-10-23T09:00:53.541Z,235.60
2022-10-23T09:01:53.881Z,231.45
2022-10-23T09:02:53.779Z,230.96
2022-10-23T09:03:53.922Z,236.28
2022-10-23T09:04:54.074Z,239.04
2022-10-23T09:05:54.172Z,240.79
2022-10-23T09:06:54.402Z,236.97
2022-10-23T09:07:54.393Z,232.60
2022-10-23T09:08:54.511Z,231.78
2022-10-23T09:09:54.711Z,225.87
2022-10-23T09:10:54.692Z,228.71
2022-10-23T09:11:54.911Z,238.86
2022-10-23T09:12:55.060Z,232.27
2022-10-23T09:13:55.113Z,231.29
2022-10-23T09:14:55.231Z,236.79
2022-10-23T09:15:55.332Z,237.82
2022-10-23T09:16:55.559Z,240.97
2022-10-23T09:17:55.550Z,244.01
2022-10-23T09:18:55.631Z,245.66
2022-10-23T09:19:55.791Z,246.03
2022-10-23T09:20:55.873Z,245.66
2022-10-23T09:21:56.186Z,246.95
2022-10-23T09:22:56.110Z,245.84
2022-10-23T09:23:56.248Z,242.75
2022-10-23T09:24:56.400Z,244.01
2022-10-23T09:25:56.491Z,242.39
2022-10-23T09:26:56.700Z,243.83
2022-10-23T09:27:58.158Z,238.17
2022-10-23T09:28:56.839Z,238.52
2022-10-23T09:29:57.032Z,240.62
2022-10-23T09:30:57.070Z,238.17
2022-10-23T09:31:57.216Z,236.45
2022-10-23T09:32:57.311Z,237.14
2022-10-23T09:33:57.402Z,229.19
2022-10-23T09:34:57.562Z,227.12
2022-10-23T09:35:57.648Z,224.02
2022-10-23T09:36:57.922Z,226.03
2022-10-23T09:37:57.888Z,229.83
2022-10-23T09:38:58.029Z,232.43
2022-10-23T09:39:58.167Z,238.86
2022-10-23T09:40:58.328Z,256.01
2022-10-23T09:41:58.491Z,263.20
2022-10-23T09:42:58.578Z,265.11
2022-10-23T09:43:58.667Z,278.15
2022-10-23T09:45:02.298Z,285.90
2022-10-23T09:45:58.947Z,287.66
2022-10-23T09:46:59.137Z,302.51
2022-10-23T09:47:59.186Z,323.70
2022-10-23T09:49:00.964Z,332.22
2022-10-23T09:49:59.450Z,344.06
2022-10-23T09:50:59.557Z,354.47
2022-10-23T09:51:59.696Z,351.43
2022-10-23T09:52:59.778Z,354.47
2022-10-23T09:53:59.932Z,364.71
2022-10-23T09:55:00.033Z,363.90
2022-10-23T09:56:00.154Z,372.58
2022-10-23T09:57:00.266Z,387.92
2022-10-23T09:58:00.388Z,392.02
2022-10-23T09:59:00.475Z,384.12
2022-10-23T10:00:00.615Z,381.48
2022-10-23T10:01:00.854Z,390.88
2022-10-23T10:02:01.134Z,400.50
2022-10-23T10:03:01.045Z,407.60
2022-10-23T10:04:01.145Z,407.60
2022-10-23T10:05:01.227Z,407.85
2022-10-23T10:06:01.362Z,411.37
2022-10-23T10:07:01.583Z,419.92
2022-10-23T10:08:01.624Z,424.46
2022-10-23T10:09:01.744Z,417.55
2022-10-23T10:10:01.873Z,384.34
2022-10-23T10:11:01.971Z,376.86
2022-10-23T10:12:02.125Z,365.12
2022-10-23T10:13:02.194Z,383.24
2022-10-23T10:14:02.287Z,390.88
2022-10-23T10:15:02.415Z,367.16
2022-10-23T10:16:02.592Z,339.79
2022-10-23T10:17:02.723Z,306.75
2022-10-23T10:18:02.828Z,270.35
2022-10-23T10:19:02.914Z,242.93
2022-10-23T10:20:05.465Z,221.60
2022-10-23T10:21:03.143Z,204.99
2022-10-23T10:22:03.350Z,189.92
2022-10-23T10:23:03.392Z,175.84
2022-10-23T10:24:03.557Z,166.21
2022-10-23T10:25:03.644Z,155.67
2022-10-23T10:26:03.804Z,147.16
2022-10-23T10:27:03.973Z,139.88
2022-10-23T10:28:04.027Z,132.34
2022-10-23T10:29:04.128Z,126.80
2022-10-23T10:30:04.281Z,121.81
2022-10-23T10:31:04.389Z,117.52
2022-10-23T10:32:04.602Z,116.05
2022-10-23T10:33:04.602Z,112.60
2022-10-23T10:34:04.751Z,111.92
2022-10-23T10:35:04.860Z,115.48
2022-10-23T10:36:05.041Z,119.79
2022-10-23T10:37:05.181Z,127.19
2022-10-23T10:38:05.283Z,132.65
2022-10-23T10:39:05.390Z,136.00
2022-10-23T10:40:05.489Z,138.37
2022-10-23T10:41:05.639Z,139.29
2022-10-23T10:42:05.758Z,140.94
2022-10-23T10:43:05.839Z,139.06
2022-10-23T10:44:05.971Z,136.00
2022-10-23T10:45:06.131Z,129.66
2022-10-23T10:46:06.241Z,125.85
2022-10-23T10:47:06.369Z,121.36
2022-10-23T10:48:06.489Z,119.20
2022-10-23T10:49:06.579Z,118.43
2022-10-23T10:50:06.709Z,118.94
2022-10-23T10:51:06.830Z,117.93
2022-10-23T10:52:06.950Z,116.69
2022-10-23T10:53:07.038Z,115.96
2022-10-23T10:54:07.188Z,115.01
2022-10-23T10:55:07.297Z,112.00
2022-10-23T10:56:07.441Z,110.95
2022-10-23T10:57:07.518Z,110.88
2022-10-23T10:58:07.627Z,109.28
2022-10-23T10:59:07.707Z,110.15
2022-10-23T11:00:07.848Z,111.03
2022-10-23T11:01:08.090Z,110.95
2022-10-23T11:02:08.297Z,110.81
2022-10-23T11:03:08.247Z,111.32
2022-10-23T11:04:08.355Z,113.68
2022-10-23T11:05:08.494Z,116.45
2022-10-23T11:06:08.648Z,118.60
2022-10-23T11:07:08.897Z,120.14
2022-10-23T11:08:08.899Z,122.43
2022-10-23T11:09:20.262Z,125.56
2022-10-23T11:10:10.136Z,130.27
2022-10-23T11:11:09.266Z,134.68
2022-10-23T11:12:09.456Z,135.67
2022-10-23T11:13:09.536Z,136.90
2022-10-23T11:14:09.695Z,136.56
2022-10-23T11:15:09.803Z,139.88
2022-10-23T11:16:09.967Z,140.59
2022-10-23T11:17:10.116Z,144.98
2022-10-23T11:18:10.215Z,147.03
2022-10-23T11:19:13.835Z,148.86
2022-10-23T11:20:10.437Z,153.52
2022-10-23T11:21:10.565Z,154.09
2022-10-23T11:22:10.715Z,152.96
2022-10-23T11:23:10.775Z,155.23
2022-10-23T11:25:10.995Z,162.96
2022-10-23T11:26:11.143Z,167.04
2022-10-23T11:27:11.316Z,169.76
2022-10-23T11:28:11.383Z,172.21
2022-10-23T11:29:11.482Z,163.12
2022-10-23T11:30:11.654Z,167.71
2022-10-23T11:31:12.285Z,169.07
2022-10-23T11:32:11.893Z,171.15
2022-10-23T11:33:12.003Z,171.68
2022-10-23T11:34:12.102Z,171.68
2022-10-23T11:35:12.196Z,170.98
2022-10-23T11:36:12.344Z,171.86
2022-10-23T11:37:12.472Z,171.15
2022-10-23T11:38:12.571Z,174.01
2022-10-23T11:39:12.682Z,180.02
2022-10-23T11:40:12.844Z,181.38
2022-10-23T11:41:12.912Z,177.90
2022-10-23T11:42:13.091Z,181.78
2022-10-23T11:43:13.184Z,189.70
2022-10-23T11:44:13.321Z,199.50
2022-10-23T11:45:13.451Z,209.30
2022-10-23T11:46:13.584Z,218.79
2022-10-23T11:47:13.760Z,231.29
2022-10-23T11:48:13.881Z,245.66
2022-10-23T11:49:13.962Z,256.41
2022-10-23T11:50:14.180Z,265.33
2022-10-23T11:51:14.200Z,263.20
2022-10-23T11:52:14.441Z,270.35
2022-10-23T11:53:15.892Z,298.65
2022-10-23T11:54:14.611Z,323.06
2022-10-23T11:55:14.711Z,347.34
2022-10-23T11:56:14.820Z,356.78
2022-10-23T11:57:14.959Z,363.90
2022-10-23T11:58:15.040Z,377.73
2022-10-23T11:59:15.171Z,385.67
2022-10-23T12:00:15.311Z,388.60
2022-10-23T12:01:15.497Z,394.11
2022-10-23T12:02:15.690Z,407.85
2022-10-23T12:03:15.700Z,402.68
2022-10-23T12:04:15.839Z,395.51
2022-10-23T12:05:15.998Z,397.40
2022-10-23T12:06:16.110Z,405.12
2022-10-23T12:07:16.249Z,411.12
2022-10-23T12:08:16.289Z,410.61
2022-10-23T12:09:16.439Z,406.36
2022-10-23T12:10:16.598Z,422.58
2022-10-23T12:11:16.650Z,447.54
2022-10-23T12:12:16.858Z,470.93
2022-10-23T12:13:16.888Z,480.08
2022-10-23T12:14:17.030Z,483.21
2022-10-23T12:15:17.159Z,498.01
2022-10-23T12:16:17.299Z,499.87
2022-10-23T12:17:18.058Z,509.42
2022-10-23T12:18:17.568Z,499.87
2022-10-23T12:19:17.727Z,508.26
2022-10-23T12:20:17.829Z,516.12
2022-10-23T12:21:17.988Z,525.48
2022-10-23T12:22:18.288Z,517.33
2022-10-23T12:23:18.209Z,519.34
2022-10-23T12:24:18.347Z,518.13
2022-10-23T12:25:18.499Z,500.62
2022-10-23T12:26:18.586Z,503.65
2022-10-23T12:27:18.895Z,505.94
2022-10-23T12:28:18.885Z,512.16
2022-10-23T12:29:19.036Z,522.60
2022-10-23T12:30:19.107Z,533.47
2022-10-23T12:31:19.209Z,537.77
2022-10-23T12:32:19.436Z,528.39
2022-10-23T12:33:19.413Z,527.14
2022-10-23T12:34:19.546Z,533.89
2022-10-23T12:35:19.704Z,537.77
2022-10-23T12:36:19.855Z,542.58
2022-10-23T12:37:20.067Z,537.34
2022-10-23T12:38:20.058Z,520.56
2022-10-23T12:39:20.148Z,508.26
2022-10-23T12:40:20.285Z,502.51
2022-10-23T12:41:20.434Z,516.12
2022-10-23T12:42:20.675Z,524.65
2022-10-23T12:43:20.665Z,524.24
2022-10-23T12:44:20.765Z,522.19
2022-10-23T12:45:20.853Z,524.65
2022-10-23T12:46:20.995Z,523.42
2022-10-23T12:47:21.785Z,519.74
2022-10-23T12:48:21.204Z,509.81
2022-10-23T12:49:21.314Z,514.14
2022-10-23T12:50:21.514Z,504.41
2022-10-23T12:51:21.582Z,497.27
2022-10-23T12:52:21.814Z,504.41